createdAt,value
2019-02-09T00:01:09.749Z,2.63
2019-02-09T00:03:37.584Z,3.20
2019-02-09T00:06:05.685Z,3.63
2019-02-09T00:08:33.821Z,3.30
2019-02-09T00:11:01.868Z,2.70
2019-02-09T00:13:30.267Z,3.30
2019-02-09T00:15:58.770Z,3.13
2019-02-09T00:18:26.571Z,3.23
2019-02-09T00:20:54.690Z,2.67
2019-02-09T00:23:25.533Z,3.13
2019-02-09T00:25:53.496Z,3.07
2019-02-09T00:28:21.468Z,3.30
2019-02-09T00:30:49.501Z,3.63
2019-02-09T00:33:18.080Z,3.73
2019-02-09T00:35:47.625Z,3.20
2019-02-09T00:38:15.758Z,3.50
2019-02-09T00:40:43.664Z,3.57
2019-02-09T00:43:12.009Z,3.07
2019-02-09T00:45:39.856Z,3.40
2019-02-09T00:48:07.985Z,3.50
2019-02-09T00:50:35.984Z,3.23
2019-02-09T00:53:04.491Z,4.30
2019-02-09T00:55:33.376Z,3.63
2019-02-09T00:58:01.266Z,3.63
2019-02-09T01:00:31.577Z,3.90
2019-02-09T01:02:59.392Z,3.53
2019-02-09T01:05:30.308Z,4.23
2019-02-09T01:07:58.309Z,3.63
2019-02-09T01:10:28.727Z,3.47
2019-02-09T01:12:56.867Z,4.33
2019-02-09T01:15:24.774Z,4.10
2019-02-09T01:17:52.497Z,3.57
2019-02-09T01:20:21.995Z,4.10
2019-02-09T01:22:50.008Z,4.00
2019-02-09T01:25:19.078Z,3.63
2019-02-09T01:27:46.923Z,3.63
2019-02-09T01:30:17.296Z,4.10
2019-02-09T01:32:45.418Z,3.70
2019-02-09T01:35:14.575Z,3.70
2019-02-09T01:37:42.627Z,4.40
2019-02-09T01:40:13.138Z,3.83
2019-02-09T01:42:41.152Z,4.00
2019-02-09T01:45:11.914Z,3.57
2019-02-09T01:47:40.319Z,3.53
2019-02-09T01:50:09.788Z,3.33
2019-02-09T01:52:37.814Z,3.30
2019-02-09T01:55:06.415Z,3.40
2019-02-09T01:57:34.321Z,3.40
2019-02-09T02:00:10.165Z,3.60
2019-02-09T02:02:32.276Z,3.63
2019-02-09T02:04:59.958Z,3.97
2019-02-09T02:07:27.855Z,3.87
2019-02-09T02:09:56.451Z,3.47
2019-02-09T02:12:24.376Z,3.30
2019-02-09T02:14:52.426Z,3.40
2019-02-09T02:17:20.192Z,3.50
2019-02-09T02:19:48.288Z,4.27
2019-02-09T02:22:16.101Z,3.70
2019-02-09T02:24:43.755Z,3.73
2019-02-09T02:27:11.999Z,3.20
2019-02-09T02:29:39.880Z,3.30
2019-02-09T02:32:07.929Z,4.07
2019-02-09T02:34:35.707Z,3.63
2019-02-09T02:37:03.214Z,3.80
2019-02-09T02:39:30.849Z,3.40
2019-02-09T02:41:58.871Z,3.90
2019-02-09T02:44:27.123Z,4.53
2019-02-09T02:46:55.605Z,3.93
2019-02-09T02:49:23.605Z,3.80
2019-02-09T02:51:51.570Z,4.17
2019-02-09T02:54:19.698Z,3.73
2019-02-09T02:56:47.884Z,3.50
2019-02-09T02:59:15.506Z,4.40
2019-02-09T03:01:43.277Z,3.50
2019-02-09T03:04:11.410Z,3.50
2019-02-09T03:06:39.452Z,3.60
2019-02-09T03:09:08.413Z,3.73
2019-02-09T03:11:36.656Z,3.60
2019-02-09T03:14:05.269Z,3.30
2019-02-09T03:16:33.207Z,3.37
2019-02-09T03:19:01.428Z,3.80
2019-02-09T03:21:29.648Z,3.70
2019-02-09T03:23:58.199Z,3.97
2019-02-09T03:26:26.173Z,3.27
2019-02-09T03:28:54.285Z,3.57
2019-02-09T03:31:22.124Z,3.40
2019-02-09T03:33:50.407Z,3.47
2019-02-09T03:36:18.365Z,3.80
2019-02-09T03:38:46.514Z,3.80
2019-02-09T03:41:14.316Z,3.90
2019-02-09T03:43:42.407Z,3.37
2019-02-09T03:46:10.793Z,3.97
2019-02-09T03:48:39.014Z,3.50
2019-02-09T03:51:07.030Z,3.80
2019-02-09T03:53:34.923Z,3.70
2019-02-09T03:56:03.489Z,3.97
2019-02-09T03:58:31.532Z,3.33
2019-02-09T04:00:59.898Z,3.73
2019-02-09T04:03:27.673Z,3.10
2019-02-09T04:05:55.862Z,3.90
2019-02-09T04:08:23.992Z,3.30
2019-02-09T04:10:51.978Z,3.30
2019-02-09T04:13:20.378Z,3.13
2019-02-09T04:15:48.255Z,3.60
2019-02-09T04:18:16.010Z,3.73
2019-02-09T04:20:47.952Z,3.57
2019-02-09T04:23:16.181Z,3.30
2019-02-09T04:25:44.307Z,3.83
2019-02-09T04:28:12.368Z,3.70
2019-02-09T04:30:40.397Z,3.07
2019-02-09T04:33:08.207Z,3.40
2019-02-09T04:35:36.679Z,3.57
2019-02-09T04:38:05.151Z,3.70
2019-02-09T04:40:32.833Z,3.40
2019-02-09T04:43:00.938Z,4.17
2019-02-09T04:45:29.273Z,3.77
2019-02-09T04:47:57.163Z,3.80
2019-02-09T04:50:25.269Z,3.83
2019-02-09T04:52:53.712Z,3.27
2019-02-09T04:55:22.644Z,3.47
2019-02-09T04:57:50.410Z,3.37
2019-02-09T05:00:20.802Z,3.03
2019-02-09T05:02:49.080Z,3.17
2019-02-09T05:05:17.360Z,3.33
2019-02-09T05:07:50.475Z,3.27
2019-02-09T05:10:18.603Z,3.17
2019-02-09T05:12:46.335Z,2.97
2019-02-09T05:15:14.792Z,3.13
2019-02-09T05:17:42.380Z,3.57
2019-02-09T05:20:12.684Z,3.50
2019-02-09T05:22:40.503Z,3.50
2019-02-09T05:25:08.688Z,3.70
2019-02-09T05:27:36.453Z,3.30
2019-02-09T05:30:06.216Z,3.60
2019-02-09T05:32:33.574Z,3.77
2019-02-09T05:35:01.290Z,3.70
2019-02-09T05:37:28.903Z,3.53
2019-02-09T05:39:56.415Z,4.17
2019-02-09T05:42:24.081Z,4.73
2019-02-09T05:44:51.726Z,4.30
2019-02-09T05:47:19.531Z,4.60
2019-02-09T05:49:46.998Z,4.73
2019-02-09T05:52:14.330Z,4.77
2019-02-09T05:54:41.759Z,5.13
2019-02-09T05:57:12.833Z,4.47
2019-02-09T05:59:40.599Z,4.77
2019-02-09T06:02:08.290Z,4.97
2019-02-09T06:04:36.099Z,4.77
2019-02-09T06:07:03.796Z,4.50
2019-02-09T06:09:31.168Z,4.63
2019-02-09T06:12:02.581Z,4.83
2019-02-09T06:14:30.198Z,3.97
2019-02-09T06:16:59.000Z,3.07
2019-02-09T06:19:26.783Z,2.73
2019-02-09T06:21:55.015Z,2.77
2019-02-09T06:24:24.203Z,3.17
2019-02-09T06:26:52.427Z,3.27
2019-02-09T06:29:20.369Z,3.27
2019-02-09T06:31:48.296Z,3.20
2019-02-09T06:34:16.031Z,3.40
2019-02-09T06:36:43.875Z,3.87
2019-02-09T06:39:11.533Z,4.33
2019-02-09T06:41:39.504Z,4.20
2019-02-09T06:44:07.499Z,4.40
2019-02-09T06:46:35.292Z,4.20
2019-02-09T06:49:03.239Z,5.27
2019-02-09T06:51:31.097Z,6.40
2019-02-09T06:54:01.010Z,6.27
2019-02-09T06:56:28.523Z,6.53
2019-02-09T06:58:56.064Z,6.30
2019-02-09T07:01:23.972Z,6.77
2019-02-09T07:04:26.797Z,7.13
2019-02-09T07:06:54.387Z,7.30
2019-02-09T07:09:25.636Z,6.80
2019-02-09T07:11:53.561Z,6.27
2019-02-09T07:14:22.289Z,7.00
2019-02-09T07:16:50.164Z,6.47
2019-02-09T07:19:22.036Z,6.03
2019-02-09T07:21:50.063Z,5.50
2019-02-09T07:24:21.793Z,5.07
2019-02-09T07:26:49.784Z,5.23
2019-02-09T07:29:19.123Z,5.30
2019-02-09T07:31:47.127Z,4.50
2019-02-09T07:34:14.991Z,5.37
2019-02-09T07:36:43.555Z,4.00
2019-02-09T07:39:15.663Z,4.10
2019-02-09T07:41:44.614Z,3.53
2019-02-09T07:44:15.510Z,3.37
2019-02-09T07:46:46.037Z,3.57
2019-02-09T07:49:14.317Z,3.90
2019-02-09T07:51:42.287Z,2.77
2019-02-09T07:54:10.015Z,3.40
2019-02-09T07:56:40.271Z,2.90
2019-02-09T07:59:07.993Z,3.00
2019-02-09T08:01:36.020Z,2.80
2019-02-09T08:04:04.807Z,2.50
2019-02-09T08:06:32.723Z,2.77
2019-02-09T08:09:00.991Z,2.53
2019-02-09T08:11:32.423Z,2.50
2019-02-09T08:14:00.362Z,2.27
2019-02-09T08:16:28.472Z,2.47
2019-02-09T08:18:56.597Z,2.40
2019-02-09T08:21:24.187Z,2.43
2019-02-09T08:23:52.162Z,2.50
2019-02-09T08:26:19.823Z,2.30
2019-02-09T08:28:47.268Z,2.20
2019-02-09T08:31:21.306Z,2.40
2019-02-09T08:33:50.784Z,2.60
2019-02-09T08:36:19.392Z,3.03
2019-02-09T08:38:46.992Z,2.87
2019-02-09T08:41:15.327Z,2.90
2019-02-09T08:43:42.729Z,2.77
2019-02-09T08:46:11.091Z,2.77
2019-02-09T08:48:43.912Z,2.83
2019-02-09T08:51:31.363Z,2.70
2019-02-09T08:53:59.115Z,3.27
2019-02-09T08:56:26.626Z,2.67
2019-02-09T08:58:54.724Z,2.63
2019-02-09T09:01:22.835Z,2.10
2019-02-09T09:03:50.610Z,2.10
2019-02-09T09:06:19.437Z,2.57
2019-02-09T09:08:49.734Z,2.23
2019-02-09T09:11:17.189Z,3.40
2019-02-09T09:13:44.516Z,2.50
2019-02-09T09:16:15.015Z,2.73
2019-02-09T09:18:45.251Z,3.00
2019-02-09T09:21:13.995Z,2.23
2019-02-09T09:23:41.959Z,2.60
2019-02-09T09:26:09.860Z,3.27
2019-02-09T09:28:37.546Z,3.63
2019-02-09T09:31:05.835Z,3.13
2019-02-09T09:33:33.791Z,2.40
2019-02-09T09:36:01.993Z,2.37
2019-02-09T09:38:29.983Z,2.20
2019-02-09T09:41:20.669Z,2.40
2019-02-09T09:44:34.661Z,2.53
2019-02-09T09:47:04.977Z,2.20
2019-02-09T09:49:33.247Z,2.83
2019-02-09T09:52:01.172Z,2.17
2019-02-09T09:54:29.783Z,2.40
2019-02-09T09:56:58.370Z,2.07
2019-02-09T09:59:27.609Z,2.20
2019-02-09T10:01:57.486Z,2.67
2019-02-09T10:04:26.539Z,2.63
2019-02-09T10:06:55.225Z,2.70
2019-02-09T10:09:23.184Z,3.07
2019-02-09T10:11:51.038Z,2.60
2019-02-09T10:14:19.341Z,2.50
2019-02-09T10:16:50.610Z,2.90
2019-02-09T10:19:20.963Z,3.23
2019-02-09T10:21:50.447Z,2.60
2019-02-09T10:24:18.599Z,2.60
2019-02-09T10:26:49.844Z,2.77
2019-02-09T10:29:20.769Z,2.40
2019-02-09T10:31:49.419Z,3.30
2019-02-09T10:34:17.272Z,2.60
2019-02-09T10:36:46.597Z,2.57
2019-02-09T10:39:14.895Z,2.87
2019-02-09T10:41:43.626Z,3.20
2019-02-09T10:44:12.439Z,2.87
2019-02-09T10:46:40.482Z,2.63
2019-02-09T10:49:08.690Z,3.00
2019-02-09T10:51:38.984Z,2.37
2019-02-09T10:54:07.765Z,3.00
2019-02-09T10:56:45.477Z,2.97
2019-02-09T10:59:21.531Z,2.83
2019-02-09T11:07:19.537Z,3.17
2019-02-09T11:10:16.961Z,4.03
2019-02-09T11:33:17.308Z,3.70
2019-02-09T11:35:47.653Z,3.67
2019-02-09T11:38:28.200Z,3.30
2019-02-09T11:40:56.209Z,4.17
2019-02-09T11:49:15.622Z,3.90
2019-02-09T11:51:51.285Z,3.97
2019-02-09T11:54:23.251Z,2.97
2019-02-09T12:02:25.175Z,3.33
2019-02-09T12:04:53.203Z,3.80
2019-02-09T12:07:23.916Z,3.67
2019-02-09T12:12:32.539Z,4.13
2019-02-09T12:15:02.084Z,3.70
2019-02-09T12:17:31.018Z,3.07
2019-02-09T12:20:03.331Z,3.47
2019-02-09T12:22:40.454Z,3.50
2019-02-09T12:25:14.700Z,2.67
2019-02-09T12:27:45.510Z,3.80
2019-02-09T12:30:19.680Z,3.03
2019-02-09T12:56:31.534Z,3.63
2019-02-09T12:59:06.061Z,3.10
2019-02-09T13:02:21.213Z,3.93
2019-02-09T13:05:29.351Z,3.27
2019-02-09T13:12:00.699Z,2.90
2019-02-09T13:15:27.487Z,2.63
2019-02-09T13:29:28.196Z,2.37
2019-02-09T13:31:59.322Z,3.10
2019-02-09T13:34:34.247Z,2.87
2019-02-09T13:37:24.700Z,2.90
2019-02-09T13:39:58.462Z,3.03
2019-02-09T13:42:32.894Z,3.37
2019-02-09T13:45:06.323Z,3.07
2019-02-09T13:47:38.080Z,2.90
2019-02-09T13:50:08.583Z,3.00
2019-02-09T13:52:36.788Z,2.63
2019-02-09T13:55:06.666Z,3.10
2019-02-09T13:57:34.907Z,3.40
2019-02-09T14:00:06.626Z,3.57
2019-02-09T14:02:49.819Z,2.63
2019-02-09T14:05:27.234Z,3.50
2019-02-09T14:07:55.567Z,2.93
2019-02-09T14:10:28.895Z,2.10
2019-02-09T14:13:01.897Z,2.47
2019-02-09T14:15:54.296Z,2.53
2019-02-09T14:18:11.093Z,2.63
2019-02-09T14:20:59.386Z,2.63
2019-02-09T14:23:28.861Z,2.80
2019-02-09T14:25:57.450Z,2.30
2019-02-09T14:28:27.902Z,2.77
2019-02-09T14:30:56.603Z,2.70
2019-02-09T14:33:30.805Z,3.73
2019-02-09T14:35:59.167Z,3.57
2019-02-09T14:38:33.019Z,2.43
2019-02-09T14:41:55.084Z,2.80
2019-02-09T14:44:24.405Z,2.90
2019-02-09T14:46:58.603Z,2.80
2019-02-09T14:49:27.593Z,3.10
2019-02-09T14:52:08.391Z,2.90
2019-02-09T14:54:48.225Z,3.03
2019-02-09T14:57:20.450Z,3.63
2019-02-09T14:59:51.842Z,4.07
2019-02-09T15:02:20.239Z,4.00
2019-02-09T15:04:48.336Z,4.00
2019-02-09T15:07:18.792Z,3.57
2019-02-09T15:09:47.364Z,4.87
2019-02-09T15:12:33.217Z,3.73
2019-02-09T15:15:04.070Z,3.10
2019-02-09T15:17:42.508Z,2.83
2019-02-09T15:20:12.836Z,3.70
2019-02-09T15:22:44.298Z,3.37
2019-02-09T15:25:12.894Z,3.63
2019-02-09T15:27:41.648Z,4.10
2019-02-09T15:30:17.046Z,3.43
2019-02-09T15:32:50.215Z,3.93
2019-02-09T15:35:21.172Z,3.23
2019-02-09T15:37:49.613Z,3.73
2019-02-09T15:40:23.112Z,4.40
2019-02-09T15:42:56.114Z,3.43
2019-02-09T15:45:24.965Z,4.13
2019-02-09T15:47:55.597Z,4.67
2019-02-09T15:50:32.712Z,3.80
2019-02-09T15:53:00.634Z,4.57
2019-02-09T15:55:28.862Z,3.50
2019-02-09T15:57:57.785Z,3.80
2019-02-09T16:00:26.518Z,3.70
2019-02-09T16:02:56.589Z,3.87
2019-02-09T16:05:34.190Z,3.03
2019-02-09T16:08:23.685Z,3.30
2019-02-09T16:11:14.205Z,3.70
2019-02-09T16:13:45.717Z,3.43
2019-02-09T16:16:15.312Z,2.87
2019-02-09T16:19:00.965Z,3.10
2019-02-09T16:21:44.960Z,3.63
2019-02-09T16:24:38.276Z,3.63
2019-02-09T16:27:18.084Z,3.50
2019-02-09T16:29:53.614Z,3.60
2019-02-09T16:34:57.088Z,3.77
2019-02-09T16:37:25.527Z,3.60
2019-02-09T16:39:54.620Z,3.40
2019-02-09T16:42:23.036Z,3.63
2019-02-09T16:47:26.349Z,3.70
2019-02-09T16:49:54.969Z,3.63
2019-02-09T16:53:16.338Z,3.67
2019-02-09T16:55:54.320Z,3.30
2019-02-09T16:58:23.416Z,3.03
2019-02-09T17:00:51.812Z,3.83
2019-02-09T17:03:20.192Z,3.60
2019-02-09T17:05:48.666Z,3.00
2019-02-09T17:08:18.064Z,4.00
2019-02-09T17:10:46.769Z,3.00
2019-02-09T17:13:15.386Z,4.70
2019-02-09T17:15:53.477Z,3.67
2019-02-09T17:18:24.415Z,3.07
2019-02-09T17:20:53.016Z,4.03
2019-02-09T17:23:21.761Z,3.30
2019-02-09T17:25:50.431Z,6.23
2019-02-09T17:28:26.506Z,6.73
2019-02-09T17:37:26.628Z,3.63
2019-02-09T17:43:21.401Z,4.23
2019-02-09T17:46:12.062Z,4.97
2019-02-09T17:52:15.254Z,4.17
2019-02-09T17:54:43.054Z,3.67
2019-02-09T17:57:11.377Z,4.00
2019-02-09T18:00:06.169Z,3.97
2019-02-09T18:02:34.370Z,4.00
2019-02-09T18:05:03.171Z,3.57
2019-02-09T18:07:36.055Z,3.23
2019-02-09T18:10:06.114Z,4.37
2019-02-09T18:12:39.346Z,3.50
2019-02-09T18:15:08.191Z,4.20
2019-02-09T18:17:36.395Z,4.13
2019-02-09T18:20:05.865Z,4.17
2019-02-09T18:22:33.579Z,4.57
2019-02-09T18:25:02.167Z,3.97
2019-02-09T18:27:30.111Z,4.07
2019-02-09T18:30:33.669Z,3.97
2019-02-09T18:39:28.429Z,3.87
2019-02-09T18:41:57.437Z,4.20
2019-02-09T18:44:25.844Z,4.03
2019-02-09T18:46:55.999Z,4.10
2019-02-09T18:49:23.732Z,4.90
2019-02-09T18:51:52.722Z,4.03
2019-02-09T18:54:20.858Z,3.70
2019-02-09T18:56:48.927Z,3.87
2019-02-09T18:59:25.449Z,3.87
2019-02-09T19:01:57.174Z,3.30
2019-02-09T19:14:17.155Z,3.93
2019-02-09T19:16:45.681Z,3.60
2019-02-09T19:19:15.303Z,3.20
2019-02-09T19:21:43.756Z,4.23
2019-02-09T19:24:11.664Z,3.93
2019-02-09T19:26:40.759Z,4.30
2019-02-09T19:29:08.947Z,3.27
2019-02-09T19:31:39.930Z,3.20
2019-02-09T19:34:08.115Z,4.17
2019-02-09T19:36:37.000Z,4.47
2019-02-09T19:39:08.326Z,3.40
2019-02-09T19:41:36.734Z,3.67
2019-02-09T19:44:13.256Z,3.93
2019-02-09T19:46:52.298Z,3.40
2019-02-09T19:49:25.897Z,3.83
2019-02-09T19:51:58.235Z,3.97
2019-02-09T19:54:30.933Z,3.37
2019-02-09T19:57:04.278Z,4.77
2019-02-09T19:59:37.254Z,4.13
2019-02-09T20:02:14.245Z,3.80
2019-02-09T20:05:35.665Z,4.10
2019-02-09T20:08:15.043Z,3.90
2019-02-09T20:10:54.629Z,3.87
2019-02-09T20:13:28.980Z,4.10
2019-02-09T20:15:58.056Z,3.57
2019-02-09T20:18:31.134Z,3.57
2019-02-09T20:20:59.303Z,4.73
2019-02-09T20:23:54.818Z,3.63
2019-02-09T20:26:27.462Z,3.40
2019-02-09T20:29:20.441Z,3.97
2019-02-09T20:31:51.267Z,3.30
2019-02-09T20:34:23.681Z,3.97
2019-02-09T20:37:15.785Z,3.73
2019-02-09T20:44:49.944Z,4.37
2019-02-09T20:47:18.638Z,4.97
2019-02-09T20:49:48.078Z,6.30
2019-02-09T20:52:31.759Z,4.37
2019-02-09T20:55:00.833Z,3.93
2019-02-09T20:57:30.357Z,5.33
2019-02-09T21:00:01.140Z,4.50
2019-02-09T21:02:31.221Z,5.60
2019-02-09T21:05:00.789Z,4.70
2019-02-09T21:07:36.409Z,4.00
2019-02-09T21:10:23.381Z,4.47
2019-02-09T21:13:14.229Z,4.37
2019-02-09T21:15:45.574Z,3.60
2019-02-09T21:18:24.791Z,3.83
2019-02-09T21:20:54.725Z,3.90
2019-02-09T21:23:22.826Z,3.10
2019-02-09T21:25:53.409Z,3.83
2019-02-09T21:28:21.733Z,4.10
2019-02-09T21:31:09.385Z,3.73
2019-02-09T21:33:37.860Z,3.20
2019-02-09T21:36:11.003Z,3.40
2019-02-09T21:38:43.036Z,3.90
2019-02-09T21:41:14.963Z,3.90
2019-02-09T21:43:52.585Z,3.97
2019-02-09T21:46:41.565Z,4.07
2019-02-09T21:49:11.631Z,3.53
2019-02-09T21:51:45.187Z,4.10
2019-02-09T21:54:13.959Z,3.23
2019-02-09T21:56:45.285Z,4.47
2019-02-09T21:59:21.985Z,4.10
2019-02-09T22:01:52.706Z,3.67
2019-02-09T22:04:26.822Z,3.77
2019-02-09T22:07:01.156Z,4.27
2019-02-09T22:09:39.441Z,4.43
2019-02-09T22:12:10.714Z,4.20
2019-02-09T22:14:47.553Z,4.33
2019-02-09T22:17:31.736Z,4.07
2019-02-09T22:20:00.611Z,3.93
2019-02-09T22:22:34.927Z,4.27
2019-02-09T22:25:13.677Z,3.90
2019-02-09T22:27:39.346Z,3.83
2019-02-09T22:30:09.289Z,3.90
2019-02-09T22:32:39.948Z,4.47
2019-02-09T22:35:08.357Z,4.27
2019-02-09T22:37:36.427Z,4.60
2019-02-09T22:40:07.953Z,4.63
2019-02-09T22:42:35.909Z,4.00
2019-02-09T22:45:05.318Z,3.77
2019-02-09T22:47:33.649Z,4.30
2019-02-09T22:50:01.744Z,4.63
2019-02-09T22:52:29.604Z,4.30
2019-02-09T22:54:58.381Z,4.50
2019-02-09T22:57:26.539Z,3.77
2019-02-09T22:59:54.336Z,3.97
2019-02-09T23:02:21.830Z,4.53
2019-02-09T23:05:21.361Z,4.27
2019-02-09T23:07:49.291Z,4.30
2019-02-09T23:10:17.777Z,4.83
2019-02-09T23:12:48.603Z,4.20
2019-02-09T23:15:15.799Z,4.80
2019-02-09T23:17:43.837Z,4.63
2019-02-09T23:20:11.815Z,4.90
2019-02-09T23:22:40.250Z,5.03
2019-02-09T23:25:08.266Z,5.13
2019-02-09T23:27:36.466Z,5.03
2019-02-09T23:30:06.611Z,4.53
2019-02-09T23:32:34.614Z,4.30
2019-02-09T23:35:03.203Z,6.20
2019-02-09T23:37:31.073Z,5.37
2019-02-09T23:39:59.718Z,5.93
2019-02-09T23:42:28.101Z,5.13
2019-02-09T23:44:56.152Z,5.10
2019-02-09T23:47:24.182Z,5.00
2019-02-09T23:49:55.401Z,4.30
2019-02-09T23:53:16.084Z,4.77
2019-02-09T23:55:51.070Z,4.57
2019-02-09T23:58:19.567Z,5.23
